createdAt,value
2023-03-16T00:00:28.030Z,4.43
2023-03-16T00:01:30.440Z,4.77
2023-03-16T00:02:32.653Z,3.87
2023-03-16T00:03:35.188Z,4.43
2023-03-16T00:04:38.162Z,4.20
2023-03-16T00:05:40.412Z,4.33
2023-03-16T00:06:42.690Z,4.87
2023-03-16T00:07:45.136Z,5.27
2023-03-16T00:08:47.521Z,3.67
2023-03-16T00:09:49.829Z,5.27
2023-03-16T00:10:54.278Z,4.70
2023-03-16T00:12:03.453Z,5.53
2023-03-16T00:13:07.222Z,4.50
2023-03-16T00:14:09.449Z,3.43
2023-03-16T00:15:12.712Z,4.87
2023-03-16T00:16:17.123Z,4.67
2023-03-16T00:17:20.917Z,4.70
2023-03-16T00:18:27.434Z,5.60
2023-03-16T00:19:29.729Z,5.93
2023-03-16T00:20:33.684Z,4.87
2023-03-16T00:21:36.280Z,5.03
2023-03-16T00:22:38.515Z,7.27
2023-03-16T00:23:42.698Z,5.00
2023-03-16T00:24:45.030Z,5.87
2023-03-16T00:25:47.286Z,6.10
2023-03-16T00:26:54.893Z,5.30
2023-03-16T00:27:57.479Z,5.47
2023-03-16T00:28:59.760Z,4.70
2023-03-16T00:30:03.192Z,5.50
2023-03-16T00:31:12.070Z,5.53
2023-03-16T00:32:19.405Z,5.00
2023-03-16T00:33:23.355Z,5.73
2023-03-16T00:34:25.723Z,4.73
2023-03-16T00:35:28.184Z,4.90
2023-03-16T00:36:30.761Z,3.73
2023-03-16T00:37:33.993Z,4.70
2023-03-16T00:38:38.800Z,4.00
2023-03-16T00:39:42.133Z,3.47
2023-03-16T00:40:44.801Z,3.57
2023-03-16T00:41:46.981Z,4.60
2023-03-16T00:42:49.226Z,4.33
2023-03-16T00:43:52.155Z,3.93
2023-03-16T00:44:58.248Z,5.17
2023-03-16T00:46:06.916Z,4.93
2023-03-16T00:47:14.279Z,4.50
2023-03-16T00:48:17.411Z,5.07
2023-03-16T00:49:19.590Z,5.03
2023-03-16T00:50:22.464Z,5.33
2023-03-16T00:51:24.729Z,4.90
2023-03-16T00:52:28.419Z,5.00
2023-03-16T00:53:31.472Z,5.40
2023-03-16T00:54:33.843Z,6.20
2023-03-16T00:55:36.059Z,5.53
2023-03-16T00:56:38.825Z,4.87
2023-03-16T00:57:41.672Z,5.13
2023-03-16T00:58:44.124Z,5.37
2023-03-16T00:59:47.487Z,5.47
2023-03-16T01:00:49.977Z,4.33
2023-03-16T01:01:53.162Z,4.50
2023-03-16T01:02:55.518Z,5.30
2023-03-16T01:03:57.860Z,6.07
2023-03-16T01:05:00.450Z,6.60
2023-03-16T01:06:11.098Z,4.70
2023-03-16T01:07:14.697Z,5.03
2023-03-16T01:08:17.198Z,4.17
2023-03-16T01:09:20.610Z,5.17
2023-03-16T01:10:23.091Z,4.17
2023-03-16T01:11:25.359Z,6.13
2023-03-16T01:12:28.127Z,4.77
2023-03-16T01:13:30.651Z,5.17
2023-03-16T01:14:35.042Z,3.40
2023-03-16T01:15:39.290Z,4.17
2023-03-16T01:16:41.712Z,5.10
2023-03-16T01:17:44.020Z,6.43
2023-03-16T01:18:47.952Z,3.57
2023-03-16T01:19:50.750Z,4.90
2023-03-16T01:20:53.537Z,7.77
2023-03-16T01:21:56.325Z,5.20
2023-03-16T01:22:58.617Z,4.43
2023-03-16T01:24:01.667Z,4.07
2023-03-16T01:25:05.002Z,5.30
2023-03-16T01:26:08.592Z,5.40
2023-03-16T01:27:12.946Z,5.60
2023-03-16T01:28:16.818Z,3.40
2023-03-16T01:29:19.931Z,5.70
2023-03-16T01:30:22.591Z,5.20
2023-03-16T01:31:25.067Z,6.17
2023-03-16T01:32:27.536Z,4.20
2023-03-16T01:33:30.593Z,5.00
2023-03-16T01:34:34.090Z,4.60
2023-03-16T01:35:36.402Z,4.07
2023-03-16T01:36:39.188Z,4.80
2023-03-16T01:37:42.780Z,4.43
2023-03-16T01:38:54.853Z,3.10
2023-03-16T01:39:59.036Z,3.57
2023-03-16T01:41:01.808Z,5.33
2023-03-16T01:42:04.064Z,3.93
2023-03-16T01:43:07.505Z,5.20
2023-03-16T01:44:17.598Z,4.00
2023-03-16T01:45:57.601Z,5.47
2023-03-16T01:47:00.536Z,4.13
2023-03-16T01:48:02.999Z,3.67
2023-03-16T01:49:17.055Z,5.97
2023-03-16T01:50:19.480Z,4.27
2023-03-16T01:51:34.051Z,4.63
2023-03-16T01:52:38.057Z,3.57
2023-03-16T01:53:44.833Z,3.73
2023-03-16T01:54:56.166Z,4.00
2023-03-16T01:56:00.606Z,5.13
2023-03-16T01:57:16.326Z,3.97
2023-03-16T01:58:19.347Z,4.30
2023-03-16T01:59:26.342Z,3.77
2023-03-16T02:00:32.056Z,4.07
2023-03-16T02:01:40.442Z,5.23
2023-03-16T02:02:44.921Z,3.33
2023-03-16T02:04:04.170Z,4.83
2023-03-16T02:05:38.738Z,3.73
2023-03-16T02:06:42.374Z,4.50
2023-03-16T02:07:48.013Z,4.90
2023-03-16T02:08:55.439Z,4.07
2023-03-16T02:10:01.137Z,4.50
2023-03-16T02:11:04.910Z,6.33
2023-03-16T02:12:20.570Z,4.67
2023-03-16T02:13:29.779Z,5.67
2023-03-16T02:14:32.289Z,4.63
2023-03-16T02:15:36.595Z,4.13
2023-03-16T02:16:40.849Z,4.17
2023-03-16T02:17:45.248Z,5.03
2023-03-16T02:18:51.472Z,4.10
2023-03-16T02:20:12.233Z,4.03
2023-03-16T02:21:40.283Z,4.90
2023-03-16T02:22:50.189Z,3.83
2023-03-16T02:23:53.546Z,4.03
2023-03-16T02:24:55.868Z,4.10
2023-03-16T02:26:06.538Z,3.90
2023-03-16T02:27:20.348Z,3.93
2023-03-16T02:28:29.934Z,4.60
2023-03-16T02:30:14.947Z,4.47
2023-03-16T02:31:29.762Z,3.63
2023-03-16T02:32:33.583Z,3.47
2023-03-16T02:33:39.634Z,6.20
2023-03-16T02:34:43.875Z,4.93
2023-03-16T02:35:48.295Z,6.50
2023-03-16T02:36:53.162Z,3.53
2023-03-16T02:37:59.868Z,3.07
2023-03-16T02:39:06.049Z,4.30
2023-03-16T02:40:22.587Z,3.33
2023-03-16T02:41:26.558Z,4.50
2023-03-16T02:42:32.889Z,4.77
2023-03-16T02:43:38.069Z,4.70
2023-03-16T02:44:59.419Z,4.53
2023-03-16T02:46:06.869Z,4.53
2023-03-16T02:47:24.801Z,4.10
2023-03-16T02:48:36.054Z,4.23
2023-03-16T02:49:41.594Z,5.33
2023-03-16T02:50:49.611Z,3.87
2023-03-16T02:51:52.433Z,4.77
2023-03-16T02:52:54.959Z,5.43
2023-03-16T02:53:57.264Z,3.97
2023-03-16T02:55:00.469Z,4.00
2023-03-16T02:56:03.157Z,5.23
2023-03-16T02:57:08.392Z,3.50
2023-03-16T02:58:12.091Z,5.17
2023-03-16T02:59:14.617Z,4.57
2023-03-16T03:00:19.249Z,3.70
2023-03-16T03:01:26.051Z,3.93
2023-03-16T03:02:28.215Z,4.20
2023-03-16T03:03:30.602Z,5.90
2023-03-16T03:04:33.834Z,4.50
2023-03-16T03:05:37.395Z,5.53
2023-03-16T03:06:39.918Z,4.40
2023-03-16T03:07:42.224Z,5.20
2023-03-16T03:08:44.581Z,6.97
2023-03-16T03:09:47.575Z,6.57
2023-03-16T03:10:49.886Z,5.30
2023-03-16T03:11:52.142Z,5.43
2023-03-16T03:12:54.414Z,5.50
2023-03-16T03:13:57.003Z,5.27
2023-03-16T03:15:02.119Z,5.07
2023-03-16T03:16:14.449Z,4.83
2023-03-16T03:17:17.038Z,7.47
2023-03-16T03:18:19.545Z,4.83
2023-03-16T03:19:23.209Z,4.17
2023-03-16T03:20:25.879Z,3.57
2023-03-16T03:21:29.661Z,5.03
2023-03-16T03:22:33.971Z,4.33
2023-03-16T03:23:36.315Z,5.77
2023-03-16T03:24:38.519Z,3.37
2023-03-16T03:25:40.675Z,3.83
2023-03-16T03:26:45.244Z,3.90
2023-03-16T03:27:54.964Z,6.07
2023-03-16T03:28:58.258Z,4.60
2023-03-16T03:30:00.449Z,4.60
2023-03-16T03:31:04.290Z,5.10
2023-03-16T03:32:06.994Z,4.07
2023-03-16T03:33:09.399Z,4.90
2023-03-16T03:34:11.816Z,5.47
2023-03-16T03:35:15.361Z,4.23
2023-03-16T03:36:18.242Z,4.13
2023-03-16T03:37:21.137Z,6.50
2023-03-16T03:38:26.588Z,6.10
2023-03-16T03:39:31.077Z,4.90
2023-03-16T03:40:33.233Z,4.33
2023-03-16T03:41:38.156Z,4.80
2023-03-16T03:42:42.315Z,5.83
2023-03-16T03:43:44.779Z,6.10
2023-03-16T03:44:52.886Z,6.27
2023-03-16T03:45:59.111Z,5.43
2023-03-16T03:47:01.679Z,5.67
2023-03-16T03:48:04.363Z,3.73
2023-03-16T03:49:06.693Z,4.63
2023-03-16T03:50:12.217Z,5.60
2023-03-16T03:51:24.084Z,5.13
2023-03-16T03:52:37.818Z,6.53
2023-03-16T03:53:40.308Z,4.60
2023-03-16T03:55:06.280Z,5.30
2023-03-16T03:56:08.770Z,5.43
2023-03-16T03:57:15.375Z,6.60
2023-03-16T03:58:17.668Z,5.37
2023-03-16T03:59:20.274Z,4.07
2023-03-16T04:00:45.688Z,5.70
2023-03-16T04:01:49.191Z,4.93
2023-03-16T04:02:51.693Z,5.57
2023-03-16T04:04:01.876Z,4.47
2023-03-16T04:05:05.139Z,5.63
2023-03-16T04:06:08.361Z,5.00
2023-03-16T04:07:13.124Z,7.20
2023-03-16T04:08:17.289Z,5.13
2023-03-16T04:09:20.112Z,5.57
2023-03-16T04:10:22.699Z,5.93
2023-03-16T04:11:25.007Z,6.60
2023-03-16T04:12:27.491Z,7.80
2023-03-16T04:13:30.564Z,7.10
2023-03-16T04:14:33.582Z,5.00
2023-03-16T04:15:39.047Z,5.33
2023-03-16T04:16:47.063Z,5.27
2023-03-16T04:17:49.728Z,5.27
2023-03-16T04:18:52.176Z,5.07
2023-03-16T04:19:54.378Z,5.13
2023-03-16T04:20:56.823Z,6.07
2023-03-16T04:22:00.704Z,4.60
2023-03-16T04:23:03.001Z,5.53
2023-03-16T04:24:06.932Z,4.83
2023-03-16T04:25:12.473Z,5.60
2023-03-16T04:26:15.986Z,4.53
2023-03-16T04:27:21.311Z,6.67
2023-03-16T04:28:26.502Z,8.83
2023-03-16T04:29:29.183Z,4.77
2023-03-16T04:30:33.246Z,5.47
2023-03-16T04:31:48.273Z,5.63
2023-03-16T04:32:52.538Z,5.27
2023-03-16T04:33:56.116Z,5.90
2023-03-16T04:35:00.594Z,5.20
2023-03-16T04:36:14.353Z,4.73
2023-03-16T04:37:17.049Z,5.77
2023-03-16T04:38:19.628Z,6.03
2023-03-16T04:39:30.946Z,4.97
2023-03-16T04:40:34.167Z,5.40
2023-03-16T04:41:46.443Z,4.60
2023-03-16T04:42:54.396Z,5.23
2023-03-16T04:43:57.833Z,6.53
2023-03-16T04:45:00.835Z,4.43
2023-03-16T04:46:04.663Z,5.23
2023-03-16T04:47:07.555Z,6.90
2023-03-16T04:48:13.723Z,6.33
2023-03-16T04:49:15.910Z,5.77
2023-03-16T04:50:20.404Z,5.07
2023-03-16T04:51:27.525Z,7.87
2023-03-16T04:52:42.737Z,7.27
2023-03-16T04:53:45.619Z,8.20
2023-03-16T04:54:58.159Z,7.30
2023-03-16T04:56:00.527Z,9.40
2023-03-16T04:57:05.119Z,9.73
2023-03-16T04:58:16.373Z,10.80
2023-03-16T04:59:18.821Z,14.60
2023-03-16T05:00:28.344Z,11.70
2023-03-16T05:01:44.041Z,9.87
2023-03-16T05:02:48.541Z,9.93
2023-03-16T05:03:50.933Z,9.83
2023-03-16T05:04:53.481Z,8.13
2023-03-16T05:05:55.785Z,6.00
2023-03-16T05:06:59.221Z,5.97
2023-03-16T05:08:07.243Z,9.47
2023-03-16T05:09:11.938Z,6.60
2023-03-16T05:10:18.959Z,6.70
2023-03-16T05:11:22.260Z,6.33
2023-03-16T05:12:33.010Z,8.07
2023-03-16T05:13:39.430Z,6.50
2023-03-16T05:14:41.636Z,5.17
2023-03-16T05:15:58.334Z,5.77
2023-03-16T05:17:07.840Z,6.17
2023-03-16T05:18:10.300Z,8.37
2023-03-16T05:19:12.713Z,7.40
2023-03-16T05:20:16.486Z,7.73
2023-03-16T05:21:24.905Z,6.00
2023-03-16T05:22:35.390Z,7.47
2023-03-16T05:24:05.914Z,7.07
2023-03-16T05:25:09.507Z,5.70
2023-03-16T05:26:13.375Z,6.17
2023-03-16T05:27:16.443Z,5.60
2023-03-16T05:28:18.814Z,6.87
2023-03-16T05:29:27.091Z,7.07
2023-03-16T05:30:29.950Z,5.43
2023-03-16T05:31:36.399Z,5.27
2023-03-16T05:32:45.098Z,4.97
2023-03-16T05:33:48.609Z,6.17
2023-03-16T05:34:54.116Z,6.47
2023-03-16T05:35:58.267Z,7.13
2023-03-16T05:37:00.901Z,5.40
2023-03-16T05:38:04.305Z,6.03
2023-03-16T05:39:09.189Z,7.07
2023-03-16T05:40:23.099Z,5.63
2023-03-16T05:41:38.060Z,6.10
2023-03-16T05:43:06.417Z,7.17
2023-03-16T05:44:13.754Z,5.13
2023-03-16T05:45:36.411Z,6.20
2023-03-16T05:46:45.973Z,7.30
2023-03-16T05:47:48.366Z,5.30
2023-03-16T05:48:50.596Z,6.33
2023-03-16T05:49:54.669Z,5.10
2023-03-16T05:51:06.017Z,6.17
2023-03-16T05:52:08.564Z,5.77
2023-03-16T05:53:11.319Z,5.87
2023-03-16T05:54:14.438Z,6.00
2023-03-16T05:55:21.441Z,5.90
2023-03-16T05:56:30.968Z,7.23
2023-03-16T05:57:34.914Z,7.67
2023-03-16T05:58:37.189Z,6.10
2023-03-16T05:59:43.040Z,6.80
2023-03-16T06:00:48.452Z,6.77
2023-03-16T06:01:57.852Z,7.43
2023-03-16T06:03:00.422Z,6.53
2023-03-16T06:04:07.532Z,6.43
2023-03-16T06:05:13.264Z,7.40
2023-03-16T06:06:22.803Z,6.97
2023-03-16T06:07:37.541Z,7.83
2023-03-16T06:08:39.858Z,6.90
2023-03-16T06:09:44.897Z,7.10
2023-03-16T06:10:50.487Z,7.03
2023-03-16T06:11:54.158Z,7.90
2023-03-16T06:12:56.904Z,8.00
2023-03-16T06:14:02.652Z,6.47
2023-03-16T06:15:09.079Z,8.17
2023-03-16T06:16:13.965Z,7.33
2023-03-16T06:17:18.790Z,7.67
2023-03-16T06:18:21.517Z,8.37
2023-03-16T06:19:23.788Z,6.77
2023-03-16T06:20:31.063Z,8.17
2023-03-16T06:21:33.553Z,7.77
2023-03-16T06:22:44.108Z,8.33
2023-03-16T06:23:47.508Z,7.77
2023-03-16T06:24:50.800Z,8.53
2023-03-16T06:25:55.631Z,6.83
2023-03-16T06:27:00.968Z,6.43
2023-03-16T06:28:09.163Z,5.87
2023-03-16T06:29:12.119Z,6.87
2023-03-16T06:30:16.693Z,7.53
2023-03-16T06:31:19.881Z,7.43
2023-03-16T06:32:23.974Z,8.57
2023-03-16T06:33:26.470Z,8.10
2023-03-16T06:34:29.140Z,8.63
2023-03-16T06:35:32.710Z,8.03
2023-03-16T06:36:57.168Z,7.93
2023-03-16T06:37:59.842Z,6.77
2023-03-16T06:39:21.756Z,8.90
2023-03-16T06:40:26.316Z,8.37
2023-03-16T06:41:28.644Z,9.03
2023-03-16T06:42:30.818Z,6.80
2023-03-16T06:43:33.571Z,8.10
2023-03-16T06:44:35.822Z,7.87
2023-03-16T06:45:45.055Z,8.17
2023-03-16T06:46:59.101Z,7.97
2023-03-16T06:48:01.514Z,8.77
2023-03-16T06:49:04.969Z,7.90
2023-03-16T06:50:09.128Z,9.37
2023-03-16T06:51:11.330Z,7.23
2023-03-16T06:52:14.341Z,8.70
2023-03-16T06:53:16.552Z,6.50
2023-03-16T06:54:18.820Z,8.27
2023-03-16T06:55:21.106Z,8.70
2023-03-16T06:56:25.361Z,8.30
2023-03-16T06:57:27.674Z,8.77
2023-03-16T06:58:29.875Z,6.77
2023-03-16T06:59:32.137Z,8.23
2023-03-16T07:00:34.374Z,7.87
2023-03-16T07:01:36.676Z,7.10
2023-03-16T07:02:40.601Z,7.60
2023-03-16T07:03:43.921Z,8.23
2023-03-16T07:04:54.110Z,8.30
2023-03-16T07:05:57.606Z,7.43
2023-03-16T07:06:59.780Z,6.90
2023-03-16T07:08:05.029Z,10.37
2023-03-16T07:09:08.056Z,5.97
2023-03-16T07:10:12.790Z,7.80
2023-03-16T07:11:15.133Z,7.40
2023-03-16T07:12:17.352Z,6.60
2023-03-16T07:13:19.789Z,6.60
2023-03-16T07:14:23.459Z,7.93
2023-03-16T07:15:26.951Z,7.97
2023-03-16T07:16:32.333Z,7.73
2023-03-16T07:17:37.430Z,8.00
2023-03-16T07:18:44.349Z,7.40
2023-03-16T07:19:49.268Z,9.90
2023-03-16T07:20:53.740Z,6.70
2023-03-16T07:21:58.116Z,7.77
2023-03-16T07:23:01.382Z,6.90
2023-03-16T07:24:04.454Z,5.37
2023-03-16T07:25:12.346Z,7.17
2023-03-16T07:26:18.887Z,8.97
2023-03-16T07:27:29.716Z,7.97
2023-03-16T07:28:33.145Z,8.03
2023-03-16T07:29:36.850Z,6.43
2023-03-16T07:30:40.469Z,8.00
2023-03-16T07:31:45.522Z,9.90
2023-03-16T07:32:53.278Z,7.73
2023-03-16T07:33:57.740Z,8.30
2023-03-16T07:35:11.817Z,5.40
2023-03-16T07:36:14.653Z,6.43
2023-03-16T07:37:25.831Z,5.83
2023-03-16T07:38:33.572Z,7.43
2023-03-16T07:39:37.860Z,6.93
2023-03-16T07:40:45.038Z,5.73
2023-03-16T07:41:54.582Z,9.40
2023-03-16T07:43:12.369Z,6.57
2023-03-16T07:44:21.795Z,7.83
2023-03-16T07:45:24.577Z,6.70
2023-03-16T07:46:26.838Z,7.93
2023-03-16T07:47:31.750Z,7.23
2023-03-16T07:48:39.316Z,6.27
2023-03-16T07:49:42.028Z,7.03
2023-03-16T07:50:46.702Z,6.57
2023-03-16T07:51:49.786Z,7.10
2023-03-16T07:52:55.021Z,5.87
2023-03-16T07:53:57.307Z,7.40
2023-03-16T07:55:03.938Z,6.47
2023-03-16T07:56:06.723Z,6.23
2023-03-16T07:57:12.081Z,8.40
2023-03-16T07:58:18.323Z,6.87
2023-03-16T07:59:22.610Z,6.33
2023-03-16T08:00:25.152Z,5.43
2023-03-16T08:01:28.429Z,7.57
2023-03-16T08:02:31.521Z,7.67
2023-03-16T08:03:34.140Z,7.20
2023-03-16T08:04:36.741Z,5.90
2023-03-16T08:05:39.293Z,7.30
2023-03-16T08:06:47.979Z,7.23
2023-03-16T08:07:51.589Z,7.20
2023-03-16T08:08:59.754Z,4.53
2023-03-16T08:10:08.626Z,6.73
2023-03-16T08:11:23.915Z,5.73
2023-03-16T08:12:32.010Z,5.20
2023-03-16T08:13:35.441Z,6.87
2023-03-16T08:14:37.727Z,6.30
2023-03-16T08:15:56.176Z,7.30
2023-03-16T08:17:07.328Z,5.77
2023-03-16T08:18:10.296Z,5.23
2023-03-16T08:19:13.214Z,7.33
2023-03-16T08:20:15.694Z,6.53
2023-03-16T08:21:20.096Z,5.90
2023-03-16T08:22:22.659Z,5.50
2023-03-16T08:23:26.084Z,5.13
2023-03-16T08:24:29.776Z,5.93
2023-03-16T08:25:34.329Z,5.63
2023-03-16T08:26:44.643Z,6.20
2023-03-16T08:27:48.823Z,5.60
2023-03-16T08:28:52.189Z,7.93
2023-03-16T08:29:55.622Z,6.10
2023-03-16T08:31:01.594Z,5.80
2023-03-16T08:32:03.991Z,6.70
2023-03-16T08:33:12.973Z,7.50
2023-03-16T08:34:16.320Z,5.23
2023-03-16T08:35:19.496Z,6.27
2023-03-16T08:36:23.632Z,6.03
2023-03-16T08:37:29.002Z,6.77
2023-03-16T08:38:32.459Z,7.53
2023-03-16T08:39:42.255Z,5.13
2023-03-16T08:40:48.773Z,7.30
2023-03-16T08:41:54.102Z,8.07
2023-03-16T08:43:19.769Z,7.63
2023-03-16T08:44:25.655Z,8.87
2023-03-16T08:45:28.836Z,7.43
2023-03-16T08:46:31.108Z,6.37
2023-03-16T08:47:34.821Z,6.83
2023-03-16T08:48:37.149Z,7.43
2023-03-16T08:49:39.337Z,7.55
2023-03-16T08:50:46.648Z,8.15
2023-03-16T08:51:48.929Z,7.32
2023-03-16T08:52:51.110Z,5.82
2023-03-16T08:53:54.314Z,9.60
2023-03-16T08:55:03.568Z,5.95
2023-03-16T08:56:09.389Z,7.50
2023-03-16T08:57:12.414Z,8.95
2023-03-16T08:58:15.493Z,8.18
2023-03-16T08:59:29.011Z,5.45
2023-03-16T09:00:34.808Z,6.60
2023-03-16T09:01:44.174Z,7.13
2023-03-16T09:02:47.144Z,6.05
2023-03-16T09:03:51.424Z,5.70
2023-03-16T09:04:53.808Z,6.40
2023-03-16T09:06:04.499Z,6.93
2023-03-16T09:07:09.277Z,4.72
2023-03-16T09:08:12.839Z,5.88
2023-03-16T09:09:15.925Z,5.32
2023-03-16T09:10:19.150Z,5.75
2023-03-16T09:11:22.370Z,4.68
2023-03-16T09:12:25.101Z,4.50
2023-03-16T09:13:28.910Z,6.78
2023-03-16T09:14:31.174Z,5.13
2023-03-16T09:15:33.991Z,3.63
2023-03-16T09:16:36.559Z,5.25
2023-03-16T09:17:41.704Z,6.28
2023-03-16T09:18:44.009Z,4.93
2023-03-16T09:19:51.965Z,4.82
2023-03-16T09:21:02.626Z,5.38
2023-03-16T09:22:04.781Z,6.95
2023-03-16T09:23:07.004Z,4.60
2023-03-16T09:24:09.755Z,3.83
2023-03-16T09:25:12.026Z,3.45
2023-03-16T09:26:14.971Z,3.40
2023-03-16T09:27:18.207Z,4.78
2023-03-16T09:28:22.094Z,4.82
2023-03-16T09:29:24.708Z,3.58
2023-03-16T09:30:26.933Z,5.07
2023-03-16T09:31:29.964Z,4.68
2023-03-16T09:32:34.139Z,4.57
2023-03-16T09:33:37.067Z,5.55
2023-03-16T09:34:39.347Z,4.63
2023-03-16T09:35:41.620Z,4.20
2023-03-16T09:36:43.828Z,3.55
2023-03-16T09:38:04.305Z,5.13
2023-03-16T09:39:07.732Z,4.57
2023-03-16T09:40:23.161Z,5.65
2023-03-16T09:41:40.201Z,4.82
2023-03-16T09:42:59.783Z,4.88
2023-03-16T09:44:24.211Z,4.45
2023-03-16T09:45:41.889Z,4.32
2023-03-16T09:46:48.039Z,4.35
2023-03-16T09:47:55.056Z,4.85
2023-03-16T09:48:58.271Z,3.55
2023-03-16T09:50:04.615Z,4.70
2023-03-16T09:51:28.548Z,5.25
2023-03-16T09:53:04.726Z,4.95
2023-03-16T09:54:19.451Z,3.75
2023-03-16T09:55:31.495Z,5.65
2023-03-16T09:56:44.751Z,5.07
2023-03-16T09:57:48.149Z,4.45
2023-03-16T09:58:50.396Z,6.28
2023-03-16T09:59:55.226Z,4.43
2023-03-16T10:01:18.003Z,3.78
2023-03-16T10:02:52.686Z,5.65
2023-03-16T10:04:12.313Z,2.90
2023-03-16T10:05:17.320Z,4.25
2023-03-16T10:06:19.580Z,4.10
2023-03-16T10:07:24.831Z,4.68
2023-03-16T10:08:37.470Z,4.82
2023-03-16T10:09:49.768Z,4.40
2023-03-16T10:11:14.773Z,5.47
2023-03-16T10:12:19.761Z,4.13
2023-03-16T10:13:36.445Z,3.95
2023-03-16T10:14:46.880Z,4.05
2023-03-16T10:15:51.538Z,5.28
2023-03-16T10:17:00.768Z,4.35
2023-03-16T10:18:13.642Z,4.25
2023-03-16T10:19:23.455Z,2.78
2023-03-16T10:20:33.231Z,3.67
2023-03-16T10:21:39.817Z,4.43
2023-03-16T10:22:48.200Z,6.03
2023-03-16T10:23:54.349Z,5.70
2023-03-16T10:25:10.231Z,4.60
2023-03-16T10:26:28.650Z,3.20
2023-03-16T10:27:37.157Z,4.45
2023-03-16T10:28:39.783Z,4.07
2023-03-16T10:29:41.933Z,4.00
2023-03-16T10:30:45.137Z,3.22
2023-03-16T10:31:48.966Z,3.83
2023-03-16T10:32:52.770Z,3.78
2023-03-16T10:34:02.941Z,4.22
2023-03-16T10:35:34.764Z,2.97
2023-03-16T10:36:41.633Z,4.15
2023-03-16T10:37:43.951Z,5.07
2023-03-16T10:38:55.465Z,4.13
2023-03-16T10:39:57.642Z,5.35
2023-03-16T10:41:00.895Z,6.45
2023-03-16T10:42:03.067Z,4.03
2023-03-16T10:43:13.870Z,4.30
2023-03-16T10:44:23.597Z,4.55
2023-03-16T10:45:27.682Z,3.58
2023-03-16T10:46:44.283Z,5.93
2023-03-16T10:47:46.552Z,6.05
2023-03-16T10:49:01.332Z,5.22
2023-03-16T10:50:16.850Z,5.40
2023-03-16T10:51:25.446Z,4.78
2023-03-16T10:52:47.026Z,3.40
2023-03-16T10:53:50.887Z,3.53
2023-03-16T10:54:58.805Z,4.13
2023-03-16T10:56:21.116Z,4.38
2023-03-16T10:57:34.988Z,4.70
2023-03-16T10:58:42.702Z,6.18
2023-03-16T10:59:49.941Z,5.50
2023-03-16T11:00:53.755Z,3.67
2023-03-16T11:01:57.223Z,6.40
2023-03-16T11:03:00.212Z,3.10
2023-03-16T11:04:02.777Z,3.92
2023-03-16T11:05:30.967Z,2.65
2023-03-16T11:06:33.715Z,4.90
2023-03-16T11:07:36.374Z,5.47
2023-03-16T11:08:39.931Z,4.47
2023-03-16T11:09:43.312Z,3.42
2023-03-16T11:10:55.461Z,4.45
2023-03-16T11:11:59.793Z,3.30
2023-03-16T11:13:26.296Z,4.90
2023-03-16T11:14:30.031Z,3.22
2023-03-16T11:16:14.800Z,2.92
2023-03-16T11:17:25.304Z,3.08
2023-03-16T11:18:42.849Z,4.03
2023-03-16T11:19:48.618Z,4.88
2023-03-16T11:20:52.708Z,2.03
2023-03-16T11:22:06.544Z,3.03
2023-03-16T11:23:16.549Z,3.65
2023-03-16T11:24:25.922Z,3.28
2023-03-16T11:25:43.194Z,3.05
2023-03-16T11:26:53.320Z,3.15
2023-03-16T11:28:24.897Z,2.28
2023-03-16T11:30:02.267Z,2.15
2023-03-16T11:31:24.506Z,2.17
2023-03-16T11:32:34.654Z,2.85
2023-03-16T11:33:38.081Z,3.95
2023-03-16T11:34:43.508Z,2.95
2023-03-16T11:36:04.707Z,4.00
2023-03-16T11:37:19.496Z,2.65
2023-03-16T11:38:41.290Z,4.68
2023-03-16T11:40:03.366Z,4.05
2023-03-16T11:41:15.460Z,3.33
2023-03-16T11:42:31.160Z,3.97
2023-03-16T11:43:41.854Z,4.40
2023-03-16T11:45:15.530Z,2.55
2023-03-16T11:46:23.510Z,2.78
2023-03-16T11:47:40.963Z,3.28
2023-03-16T11:49:05.386Z,4.55
2023-03-16T11:50:34.487Z,3.17
2023-03-16T11:51:47.965Z,3.35
2023-03-16T11:53:07.286Z,3.17
2023-03-16T11:54:35.900Z,4.83
2023-03-16T11:56:00.417Z,2.90
2023-03-16T11:57:26.442Z,4.17
2023-03-16T11:58:53.759Z,2.83
2023-03-16T12:00:30.101Z,2.13
2023-03-16T12:02:00.026Z,2.87
2023-03-16T12:03:41.037Z,3.23
2023-03-16T12:04:52.230Z,3.83
2023-03-16T12:05:59.198Z,4.33
2023-03-16T12:07:47.953Z,3.40
2023-03-16T12:09:08.663Z,3.63
2023-03-16T12:10:24.168Z,4.20
2023-03-16T12:11:37.805Z,3.23
2023-03-16T12:12:58.787Z,2.53
2023-03-16T12:14:16.963Z,3.17
2023-03-16T12:15:49.094Z,4.33
2023-03-16T12:17:03.473Z,2.93
2023-03-16T12:18:15.604Z,3.33
2023-03-16T12:19:25.202Z,2.93
2023-03-16T12:20:34.431Z,3.97
2023-03-16T12:21:40.686Z,2.57
2023-03-16T12:23:23.614Z,3.20
2023-03-16T12:24:32.336Z,2.67
2023-03-16T12:25:39.696Z,4.60
2023-03-16T12:26:43.319Z,3.57
2023-03-16T12:27:48.086Z,3.30
2023-03-16T12:28:53.147Z,3.00
2023-03-16T12:30:14.329Z,3.47
2023-03-16T12:31:27.964Z,3.00
2023-03-16T12:33:00.129Z,3.73
2023-03-16T12:34:13.597Z,2.50
2023-03-16T12:35:35.908Z,2.10
2023-03-16T12:37:15.103Z,2.93
2023-03-16T12:38:48.876Z,5.73
2023-03-16T12:40:07.984Z,3.30
2023-03-16T12:41:34.825Z,2.30
2023-03-16T12:42:57.814Z,2.27
2023-03-16T12:44:06.905Z,2.67
2023-03-16T12:45:19.046Z,2.53
2023-03-16T12:46:53.676Z,4.37
2023-03-16T12:48:12.785Z,3.83
2023-03-16T12:49:16.659Z,2.37
2023-03-16T12:50:21.546Z,2.37
2023-03-16T12:51:38.031Z,2.77
2023-03-16T12:52:53.822Z,2.20
2023-03-16T12:53:57.526Z,2.77
2023-03-16T12:55:15.448Z,2.60
2023-03-16T12:56:44.654Z,3.53
2023-03-16T12:57:51.709Z,3.27
2023-03-16T12:58:56.867Z,2.43
2023-03-16T13:00:02.183Z,1.77
2023-03-16T13:01:10.247Z,3.80
2023-03-16T13:02:29.012Z,3.23
2023-03-16T13:03:33.916Z,3.23
2023-03-16T13:04:41.812Z,2.17
2023-03-16T13:05:49.899Z,2.80
2023-03-16T13:07:03.305Z,3.87
2023-03-16T13:08:16.195Z,2.93
2023-03-16T13:09:24.390Z,2.60
2023-03-16T13:10:28.900Z,1.87
2023-03-16T13:11:44.088Z,3.70
2023-03-16T13:12:47.968Z,2.60
2023-03-16T13:14:12.868Z,3.90
2023-03-16T13:15:22.895Z,3.73
2023-03-16T13:16:30.724Z,4.47
2023-03-16T13:17:34.349Z,4.50
2023-03-16T13:18:50.106Z,2.23
2023-03-16T13:20:18.232Z,3.33
2023-03-16T13:21:36.112Z,3.03
2023-03-16T13:22:45.391Z,1.83
2023-03-16T13:24:01.503Z,3.47
2023-03-16T13:25:36.321Z,2.97
2023-03-16T13:26:42.273Z,2.27
2023-03-16T13:27:49.337Z,2.73
2023-03-16T13:28:52.952Z,3.00
2023-03-16T13:30:02.351Z,4.33
2023-03-16T13:31:19.354Z,5.03
2023-03-16T13:32:22.493Z,3.77
2023-03-16T13:33:28.055Z,2.70
2023-03-16T13:34:33.986Z,4.53
2023-03-16T13:35:39.810Z,3.23
2023-03-16T13:36:45.513Z,2.23
2023-03-16T13:37:49.361Z,3.03
2023-03-16T13:39:05.250Z,2.60
2023-03-16T13:40:25.626Z,2.90
2023-03-16T13:41:28.631Z,1.33
2023-03-16T13:42:32.806Z,2.27
2023-03-16T13:43:39.399Z,1.60
2023-03-16T13:44:42.338Z,2.37
2023-03-16T13:45:45.160Z,2.07
2023-03-16T13:46:49.164Z,1.97
2023-03-16T13:47:51.840Z,1.97
2023-03-16T13:48:53.983Z,2.43
2023-03-16T13:50:02.306Z,2.93
2023-03-16T13:51:04.805Z,1.80
2023-03-16T13:52:17.938Z,2.63
2023-03-16T13:53:29.488Z,2.03
2023-03-16T13:54:31.864Z,2.43
2023-03-16T13:55:37.149Z,3.63
2023-03-16T13:56:40.269Z,2.73
2023-03-16T13:57:44.324Z,2.67
2023-03-16T13:58:52.003Z,2.50
2023-03-16T14:00:05.753Z,3.00
2023-03-16T14:01:26.123Z,2.20
2023-03-16T14:02:29.490Z,2.30
2023-03-16T14:03:38.419Z,1.83
2023-03-16T14:04:42.982Z,2.20
2023-03-16T14:05:46.306Z,2.63
2023-03-16T14:07:06.508Z,2.07
2023-03-16T14:08:17.852Z,4.37
2023-03-16T14:09:22.405Z,3.30
2023-03-16T14:10:29.927Z,2.67
2023-03-16T14:11:32.371Z,2.90
2023-03-16T14:12:34.742Z,2.37
2023-03-16T14:13:38.595Z,1.73
2023-03-16T14:14:41.583Z,3.03
2023-03-16T14:15:45.549Z,2.27
2023-03-16T14:16:48.876Z,2.90
2023-03-16T14:17:51.135Z,2.50
2023-03-16T14:19:17.660Z,3.70
2023-03-16T14:20:22.728Z,3.97
2023-03-16T14:21:32.013Z,2.50
2023-03-16T14:22:37.817Z,2.07
2023-03-16T14:23:48.681Z,3.00
2023-03-16T14:25:01.048Z,2.27
2023-03-16T14:26:12.786Z,3.40
2023-03-16T14:27:25.564Z,2.63
2023-03-16T14:28:33.844Z,2.00
2023-03-16T14:29:37.181Z,2.17
2023-03-16T14:30:50.864Z,2.17
2023-03-16T14:31:54.561Z,3.90
2023-03-16T14:33:05.897Z,2.00
2023-03-16T14:34:22.886Z,6.03
2023-03-16T14:35:41.455Z,3.47
2023-03-16T14:36:43.742Z,3.33
2023-03-16T14:37:46.212Z,2.43
2023-03-16T14:38:48.959Z,2.27
2023-03-16T14:40:20.823Z,2.07
2023-03-16T14:41:30.186Z,2.83
2023-03-16T14:42:32.427Z,2.10
2023-03-16T14:43:38.456Z,3.43
2023-03-16T14:44:41.462Z,3.43
2023-03-16T14:45:43.720Z,3.00
2023-03-16T14:46:46.325Z,4.47
2023-03-16T14:47:50.765Z,4.30
2023-03-16T14:49:06.478Z,3.00
2023-03-16T14:50:25.287Z,2.53
2023-03-16T14:51:29.741Z,3.73
2023-03-16T14:52:33.816Z,2.37
2023-03-16T14:53:36.036Z,3.83
2023-03-16T14:54:38.210Z,2.20
2023-03-16T14:55:40.643Z,3.47
2023-03-16T14:56:44.074Z,2.20
2023-03-16T14:57:46.489Z,3.53
2023-03-16T14:58:49.014Z,2.80
2023-03-16T14:59:51.660Z,4.63
2023-03-16T15:00:54.823Z,2.50